Thor Heyerdahl — DKQH — position and weather

sailwx.info

Track history (hours):
 
Tides and Currents Weather Stations Pressure Air Temp Water Temp Dewpoint Dewpoint Depression Visibility Wind Speed Wind Dir Waves Ship Positions

Thor Heyerdahl

Last reported at 2020-Apr-02 02:30 UTC. Time now 2020-Apr-02 04:20 UTC.
Position N 38°32' W 028°37'.

beam 6.5 m; draft 2.2 m.

Type: Sailing vessel. MMSI: 211232340.

Date/timePositionNaut miles runAvg speedWind from/ knotsBaromVisibWave heightAir tempDewpointWater temp
2020-Apr-02 02:30N 38°32' W 028°37'0 0.0
2020-Apr-02 02:00N 38°32' W 028°37'0 0.0
2020-Apr-01 23:00N 38°32' W 028°37'0 0.0
2020-Apr-01 22:24N 38°32' W 028°37'0 0.0
2020-Apr-01 21:30N 38°32' W 028°37'0 0.0
2020-Apr-01 21:00N 38°32' W 028°37'0 0.0
2020-Apr-01 18:27N 38°32' W 028°37'0 0.0
2020-Apr-01 18:00N 38°32' W 028°37'0 0.0
2020-Apr-01 17:00N 38°32' W 028°37'0 0.0
2020-Apr-01 16:30N 38°32' W 028°37'0 0.0
2020-Apr-01 10:30N 38°32' W 028°37'0 0.0
2020-Apr-01 08:00N 38°32' W 028°37'0 0.0
2020-Apr-01 07:27N 38°32' W 028°37'0 0.0
2020-Mar-31 22:00N 38°32' W 028°37'0 0.0
2020-Mar-31 21:00N 38°32' W 028°37'0 0.0
2020-Mar-31 20:30N 38°32' W 028°37'0 0.0
2020-Mar-31 18:00N 38°32' W 028°37'0 0.0
2020-Mar-31 16:30N 38°32' W 028°37'0 0.0
2020-Mar-31 15:57N 38°32' W 028°37'4 0.8
2020-Mar-31 11:29N 38°32' W 028°33'0 0.0
2020-Mar-31 10:56N 38°32' W 028°33'0 0.0
2020-Mar-31 09:59N 38°32' W 028°33'0 0.0
2020-Mar-31 09:29N 38°32' W 028°33'0 0.0
2020-Mar-31 08:29N 38°32' W 028°33'0 0.0
2020-Mar-31 07:29N 38°32' W 028°33'0 0.0
2020-Mar-31 06:29N 38°32' W 028°33'0 0.0
2020-Mar-31 04:59N 38°32' W 028°33'0 0.0
2020-Mar-31 04:29N 38°32' W 028°33'0 0.0
2020-Mar-31 03:29N 38°32' W 028°33'0 0.0
2020-Mar-31 00:59N 38°32' W 028°33'0 0.0
2020-Mar-30 23:29N 38°32' W 028°33'0 0.0
2020-Mar-30 21:29N 38°32' W 028°33'0 0.0
2020-Mar-30 20:59N 38°32' W 028°33'0 0.0
2020-Mar-30 17:30N 38°31' W 028°33'5 4.6
2020-Mar-30 16:30N 38°31' W 028°39'2 0.9
2020-Mar-30 14:29N 38°31' W 028°41'0 0.0
2020-Mar-30 13:59N 38°31' W 028°41'0 0.0
2020-Mar-30 11:59N 38°31' W 028°41'0 0.0
2020-Mar-30 10:23N 38°31' W 028°41'0 0.0
2020-Mar-30 08:29N 38°31' W 028°41'0 0.0
2020-Mar-30 07:59N 38°31' W 028°41'0 0.0
2020-Mar-30 05:59N 38°31' W 028°41'0 0.0
2020-Mar-30 05:29N 38°31' W 028°41'0 0.0
2020-Mar-30 04:29N 38°31' W 028°41'0 0.0
2020-Mar-30 01:59N 38°31' W 028°41'0 0.0
2020-Mar-30 01:26N 38°31' W 028°41'0 0.0
2020-Mar-29 22:29N 38°31' W 028°41'0 0.0
2020-Mar-29 21:29N 38°31' W 028°41'0 0.0
2020-Mar-29 20:29N 38°31' W 028°41'0 0.0
2020-Mar-29 19:29N 38°31' W 028°41'0 0.0
2020-Mar-29 18:59N 38°31' W 028°41'0 0.0
2020-Mar-29 17:59N 38°31' W 028°41'0 0.0
2020-Mar-29 17:29N 38°31' W 028°41'0 0.0
2020-Mar-29 16:29N 38°31' W 028°41'0 0.0
2020-Mar-29 14:29N 38°31' W 028°41'0 0.0
2020-Mar-29 13:29N 38°31' W 028°41'0 0.0
2020-Mar-29 12:59N 38°31' W 028°41'0 0.0
2020-Mar-29 12:29N 38°31' W 028°41'0 0.0
2020-Mar-29 11:26N 38°31' W 028°41'3 1.2
2020-Mar-29 09:00N 38°32' W 028°37'11 2.1
2020-Mar-29 03:30N 38°30' W 028°51'4 3.9
2020-Mar-29 02:30N 38°29' W 028°56'9 3.7
2020-Mar-29 00:00N 38°29' W 029°08'2 3.9
2020-Mar-28 23:30N 38°29' W 029°11'12 4.8
2020-Mar-28 21:00N 38°27' W 029°26'7 4.8
2020-Mar-28 19:30N 38°27' W 029°35'20 4.9
2020-Mar-28 15:30N 38°25' W 030°00'14 4.6
2020-Mar-28 12:30N 38°23' W 030°17'3 5.3
2020-Mar-28 12:00N 38°22' W 030°21'2 4.6
2020-Mar-28 11:30N 38°22' W 030°24'  
Track history (hours):
 
Tides and Currents Weather Stations Pressure Air Temp Water Temp Dewpoint Dewpoint Depression Visibility Wind Speed Wind Dir Waves Ship Positions

Thor Heyerdahl

Last reported at 2020-Apr-02 02:30 UTC. Time now 2020-Apr-02 04:20 UTC.
Position N 38°32' W 028°37'.

beam 6.5 m; draft 2.2 m.

Type: Sailing vessel. MMSI: 211232340.

Date/timePositionNaut miles runAvg speedWind from/ knotsBaromVisibWave heightAir tempDewpointWater temp
2020-Apr-02 02:30N 38°32' W 028°37'0 0.0
2020-Apr-02 02:00N 38°32' W 028°37'0 0.0
2020-Apr-01 23:00N 38°32' W 028°37'0 0.0
2020-Apr-01 22:24N 38°32' W 028°37'0 0.0
2020-Apr-01 21:30N 38°32' W 028°37'0 0.0
2020-Apr-01 21:00N 38°32' W 028°37'0 0.0
2020-Apr-01 18:27N 38°32' W 028°37'0 0.0
2020-Apr-01 18:00N 38°32' W 028°37'0 0.0
2020-Apr-01 17:00N 38°32' W 028°37'0 0.0
2020-Apr-01 16:30N 38°32' W 028°37'0 0.0
2020-Apr-01 10:30N 38°32' W 028°37'0 0.0
2020-Apr-01 08:00N 38°32' W 028°37'0 0.0
2020-Apr-01 07:27N 38°32' W 028°37'0 0.0
2020-Mar-31 22:00N 38°32' W 028°37'0 0.0
2020-Mar-31 21:00N 38°32' W 028°37'0 0.0
2020-Mar-31 20:30N 38°32' W 028°37'0 0.0
2020-Mar-31 18:00N 38°32' W 028°37'0 0.0
2020-Mar-31 16:30N 38°32' W 028°37'0 0.0
2020-Mar-31 15:57N 38°32' W 028°37'4 0.8
2020-Mar-31 11:29N 38°32' W 028°33'0 0.0
2020-Mar-31 10:56N 38°32' W 028°33'0 0.0
2020-Mar-31 09:59N 38°32' W 028°33'0 0.0
2020-Mar-31 09:29N 38°32' W 028°33'0 0.0
2020-Mar-31 08:29N 38°32' W 028°33'0 0.0
2020-Mar-31 07:29N 38°32' W 028°33'0 0.0
2020-Mar-31 06:29N 38°32' W 028°33'0 0.0
2020-Mar-31 04:59N 38°32' W 028°33'0 0.0
2020-Mar-31 04:29N 38°32' W 028°33'0 0.0
2020-Mar-31 03:29N 38°32' W 028°33'0 0.0
2020-Mar-31 00:59N 38°32' W 028°33'0 0.0
2020-Mar-30 23:29N 38°32' W 028°33'0 0.0
2020-Mar-30 21:29N 38°32' W 028°33'0 0.0
2020-Mar-30 20:59N 38°32' W 028°33'0 0.0
2020-Mar-30 17:30N 38°31' W 028°33'5 4.6
2020-Mar-30 16:30N 38°31' W 028°39'2 0.9
2020-Mar-30 14:29N 38°31' W 028°41'0 0.0
2020-Mar-30 13:59N 38°31' W 028°41'0 0.0
2020-Mar-30 11:59N 38°31' W 028°41'0 0.0
2020-Mar-30 10:23N 38°31' W 028°41'0 0.0
2020-Mar-30 08:29N 38°31' W 028°41'0 0.0
2020-Mar-30 07:59N 38°31' W 028°41'0 0.0
2020-Mar-30 05:59N 38°31' W 028°41'0 0.0
2020-Mar-30 05:29N 38°31' W 028°41'0 0.0
2020-Mar-30 04:29N 38°31' W 028°41'0 0.0
2020-Mar-30 01:59N 38°31' W 028°41'0 0.0
2020-Mar-30 01:26N 38°31' W 028°41'0 0.0
2020-Mar-29 22:29N 38°31' W 028°41'0 0.0
2020-Mar-29 21:29N 38°31' W 028°41'0 0.0
2020-Mar-29 20:29N 38°31' W 028°41'0 0.0
2020-Mar-29 19:29N 38°31' W 028°41'0 0.0
2020-Mar-29 18:59N 38°31' W 028°41'0 0.0
2020-Mar-29 17:59N 38°31' W 028°41'0 0.0
2020-Mar-29 17:29N 38°31' W 028°41'0 0.0
2020-Mar-29 16:29N 38°31' W 028°41'0 0.0
2020-Mar-29 14:29N 38°31' W 028°41'0 0.0
2020-Mar-29 13:29N 38°31' W 028°41'0 0.0
2020-Mar-29 12:59N 38°31' W 028°41'0 0.0
2020-Mar-29 12:29N 38°31' W 028°41'0 0.0
2020-Mar-29 11:26N 38°31' W 028°41'3 1.2
2020-Mar-29 09:00N 38°32' W 028°37'11 2.1
2020-Mar-29 03:30N 38°30' W 028°51'4 3.9
2020-Mar-29 02:30N 38°29' W 028°56'9 3.7
2020-Mar-29 00:00N 38°29' W 029°08'2 3.9
2020-Mar-28 23:30N 38°29' W 029°11'12 4.8
2020-Mar-28 21:00N 38°27' W 029°26'7 4.8
2020-Mar-28 19:30N 38°27' W 029°35'20 4.9
2020-Mar-28 15:30N 38°25' W 030°00'14 4.6
2020-Mar-28 12:30N 38°23' W 030°17'3 5.3
2020-Mar-28 12:00N 38°22' W 030°21'2 4.6
2020-Mar-28 11:30N 38°22' W 030°24'  

Dump ship's entire track history